Time;durP1;ratioP1;P1;durP2;ratioP2;P2;SDS_P1;SDS_P2;PMS_P1;PMS_P2;Temp;Humidity;BMP_temperature;BMP_pressure;BME280_temperature;BME280_humidity;BME280_pressure;Samples;Min_cycle;Max_cycle;Signal;HPM_P1;HPM_P2
2023/03/04 00:00:42;;;;;;;8.93;4.82;;;;;;;;;;5026004;28;20050;-75
2023/03/04 00:03:09;;;;;;;8.75;4.88;;;;;;;;;;5009086;28;20445;-75
2023/03/04 00:05:35;;;;;;;7.80;4.90;;;;;;;;;;5013248;28;20030;-77
2023/03/04 00:08:01;;;;;;;7.70;4.63;;;;;;;;;;5016120;28;20050;-76
2023/03/04 00:10:26;;;;;;;11.57;4.75;;;;;;;;;;5013577;28;20022;-76
2023/03/04 00:12:52;;;;;;;11.55;5.40;;;;;;;;;;5004840;28;20076;-75
2023/03/04 00:15:17;;;;;;;8.23;4.85;;;;;;;;;;5012564;28;20072;-75
2023/03/04 00:17:44;;;;;;;7.93;4.70;;;;;;;;;;5016488;28;20044;-76
2023/03/04 00:20:11;;;;;;;7.25;4.68;;;;;;;;;;5016074;28;20112;-75
2023/03/04 00:22:36;;;;;;;10.00;4.38;;;;;;;;;;5016086;28;20071;-76
2023/03/04 00:25:02;;;;;;;6.57;4.35;;;;;;;;;;5016024;28;20389;-76
2023/03/04 00:27:27;;;;;;;8.50;4.47;;;;;;;;;;5014658;28;20041;-75
2023/03/04 00:29:53;;;;;;;8.48;4.65;;;;;;;;;;5011338;28;20081;-75
2023/03/04 00:32:18;;;;;;;7.88;4.53;;;;;;;;;;5004350;28;20029;-75
2023/03/04 00:34:44;;;;;;;9.05;4.88;;;;;;;;;;5010417;28;20128;-75
2023/03/04 00:37:09;;;;;;;7.18;4.40;;;;;;;;;;5015833;28;20042;-75
2023/03/04 00:39:35;;;;;;;9.25;5.28;;;;;;;;;;5015762;28;20034;-75
2023/03/04 00:42:00;;;;;;;8.25;4.28;;;;;;;;;;5013848;28;20052;-75
2023/03/04 00:44:25;;;;;;;8.20;4.30;;;;;;;;;;5014014;28;20041;-75
2023/03/04 00:46:51;;;;;;;9.88;4.90;;;;;;;;;;5013431;28;20113;-75
2023/03/04 00:49:16;;;;;;;7.25;4.25;;;;;;;;;;5012629;28;20042;-75
2023/03/04 00:51:42;;;;;;;10.90;5.10;;;;;;;;;;5015185;28;20045;-75
2023/03/04 00:54:07;;;;;;;7.88;4.90;;;;;;;;;;5015515;28;20038;-75
2023/03/04 00:56:32;;;;;;;10.57;5.05;;;;;;;;;;5013740;28;20061;-75
2023/03/04 00:58:58;;;;;;;7.13;4.65;;;;;;;;;;5015527;28;20060;-75
2023/03/04 01:01:23;;;;;;;9.57;4.53;;;;;;;;;;5015346;28;20080;-75
2023/03/04 01:03:49;;;;;;;9.00;5.28;;;;;;;;;;5005206;28;20443;-77
2023/03/04 01:06:14;;;;;;;10.93;5.45;;;;;;;;;;5011252;28;20419;-75
2023/03/04 01:08:40;;;;;;;9.80;5.30;;;;;;;;;;5004549;28;20030;-75
2023/03/04 01:11:06;;;;;;;9.50;5.00;;;;;;;;;;5015221;28;20041;-75
2023/03/04 01:13:32;;;;;;;10.25;4.50;;;;;;;;;;5013836;28;20038;-76
2023/03/04 01:15:57;;;;;;;11.75;4.85;;;;;;;;;;5009140;28;20508;-75
2023/03/04 01:18:23;;;;;;;7.38;4.32;;;;;;;;;;5012467;28;20042;-75
2023/03/04 01:20:49;;;;;;;8.63;4.82;;;;;;;;;;5029418;28;20041;-75
2023/03/04 01:23:14;;;;;;;8.45;4.65;;;;;;;;;;5006611;28;20109;-75
2023/03/04 01:25:40;;;;;;;8.48;4.85;;;;;;;;;;5014138;28;20112;-75
2023/03/04 01:28:05;;;;;;;7.25;4.18;;;;;;;;;;5014071;28;20539;-75
2023/03/04 01:30:31;;;;;;;9.43;5.00;;;;;;;;;;5014429;28;20029;-76
2023/03/04 01:32:56;;;;;;;11.35;4.68;;;;;;;;;;5008857;28;20048;-75
2023/03/04 01:35:22;;;;;;;7.55;4.80;;;;;;;;;;5009090;28;20153;-76
2023/03/04 01:37:47;;;;;;;9.63;4.60;;;;;;;;;;5011139;28;20376;-75
2023/03/04 01:40:13;;;;;;;9.57;5.43;;;;;;;;;;5014518;28;20397;-76
2023/03/04 01:42:38;;;;;;;9.25;4.65;;;;;;;;;;5006903;28;20381;-76
2023/03/04 01:45:05;;;;;;;8.82;4.80;;;;;;;;;;5008201;28;20033;-75
2023/03/04 01:47:32;;;;;;;7.28;4.32;;;;;;;;;;5030112;28;20042;-75
2023/03/04 01:49:57;;;;;;;9.85;4.15;;;;;;;;;;5029339;28;20033;-75
2023/03/04 01:52:24;;;;;;;8.25;4.85;;;;;;;;;;5007958;28;20108;-75
2023/03/04 01:54:50;;;;;;;11.45;5.10;;;;;;;;;;5001957;28;20482;-76
2023/03/04 01:57:25;;;;;;;10.40;5.03;;;;;;;;;;5007721;28;20072;-75
2023/03/04 02:00:30;;;;;;;7.90;4.57;;;;;;;;;;5028530;28;20037;-76
2023/03/04 02:03:03;;;;;;;9.63;4.97;;;;;;;;;;4958742;28;20057;-75
2023/03/04 02:05:29;;;;;;;8.40;4.80;;;;;;;;;;4953246;29;20043;-76
2023/03/04 02:07:56;;;;;;;9.30;4.28;;;;;;;;;;4977242;28;20061;-75
2023/03/04 02:10:22;;;;;;;9.30;4.60;;;;;;;;;;5003300;28;20136;-75
2023/03/04 02:12:47;;;;;;;8.07;4.18;;;;;;;;;;5013226;28;20037;-75
2023/03/04 02:15:13;;;;;;;7.25;4.25;;;;;;;;;;5009270;28;20076;-75
2023/03/04 02:17:38;;;;;;;9.15;4.20;;;;;;;;;;5005929;28;20034;-75
2023/03/04 02:20:19;;;;;;;8.35;5.00;;;;;;;;;;5000819;28;20038;-75
2023/03/04 02:23:00;;;;;;;9.95;4.97;;;;;;;;;;5014129;28;20037;-74
2023/03/04 02:25:32;;;;;;;8.40;4.28;;;;;;;;;;5029113;28;20076;-77
2023/03/04 02:27:58;;;;;;;9.68;4.85;;;;;;;;;;5008931;28;20393;-75
2023/03/04 02:30:26;;;;;;;9.93;4.43;;;;;;;;;;5013470;28;20041;-75
2023/03/04 02:32:52;;;;;;;9.10;4.85;;;;;;;;;;5003204;28;20397;-75
2023/03/04 02:35:18;;;;;;;12.70;5.90;;;;;;;;;;5028223;28;20038;-75
2023/03/04 02:37:44;;;;;;;8.88;4.80;;;;;;;;;;5022578;28;20030;-75
2023/03/04 02:40:17;;;;;;;9.50;4.40;;;;;;;;;;5011188;28;20060;-76
2023/03/04 02:42:44;;;;;;;13.17;4.67;;;;;;;;;;5009883;28;20042;-76
2023/03/04 02:45:40;;;;;;;9.30;4.95;;;;;;;;;;5012427;28;20033;-76
2023/03/04 02:48:07;;;;;;;7.82;4.28;;;;;;;;;;5012512;28;20045;-76
2023/03/04 02:50:37;;;;;;;8.32;4.35;;;;;;;;;;5027180;28;20042;-75
2023/03/04 02:53:03;;;;;;;8.70;4.47;;;;;;;;;;5025820;28;20108;-76
2023/03/04 02:55:28;;;;;;;11.82;4.72;;;;;;;;;;5027071;28;20033;-77
2023/03/04 02:57:54;;;;;;;10.25;4.60;;;;;;;;;;5013759;28;20022;-76
2023/03/04 03:00:20;;;;;;;11.40;4.82;;;;;;;;;;5013309;28;20041;-76
2023/03/04 03:02:45;;;;;;;11.48;4.05;;;;;;;;;;5009514;28;20041;-75
2023/03/04 03:05:11;;;;;;;6.97;4.03;;;;;;;;;;5028449;28;20044;-75
2023/03/04 03:07:37;;;;;;;9.20;4.75;;;;;;;;;;5010516;28;20116;-76
2023/03/04 03:10:03;;;;;;;11.38;4.18;;;;;;;;;;5013021;28;20184;-75
2023/03/04 03:12:28;;;;;;;9.85;4.43;;;;;;;;;;5008644;28;20030;-76
2023/03/04 03:14:54;;;;;;;10.00;4.60;;;;;;;;;;5012973;28;20096;-75
2023/03/04 03:17:19;;;;;;;10.07;4.18;;;;;;;;;;5005529;28;20044;-75
2023/03/04 03:19:45;;;;;;;11.55;4.53;;;;;;;;;;5006669;28;20034;-75
2023/03/04 03:22:10;;;;;;;8.48;4.10;;;;;;;;;;5008099;28;20089;-76
2023/03/04 03:24:35;;;;;;;8.95;4.15;;;;;;;;;;5008814;28;20030;-76
2023/03/04 03:27:01;;;;;;;13.02;4.82;;;;;;;;;;5012764;28;20477;-75
2023/03/04 03:29:26;;;;;;;13.98;5.07;;;;;;;;;;5013068;28;20036;-77
2023/03/04 03:31:52;;;;;;;11.32;5.45;;;;;;;;;;5008741;28;20125;-75
2023/03/04 03:34:17;;;;;;;10.23;4.35;;;;;;;;;;5016841;28;20054;-75
2023/03/04 03:36:42;;;;;;;10.85;4.90;;;;;;;;;;5013348;28;20049;-75
2023/03/04 03:39:08;;;;;;;14.18;5.45;;;;;;;;;;5012139;28;20050;-75
2023/03/04 03:41:33;;;;;;;9.50;4.65;;;;;;;;;;5016875;28;20041;-76
2023/03/04 03:43:59;;;;;;;8.55;5.03;;;;;;;;;;5017157;28;20049;-75
2023/03/04 03:46:24;;;;;;;12.45;5.78;;;;;;;;;;5011530;28;20424;-74
2023/03/04 03:48:50;;;;;;;15.80;5.40;;;;;;;;;;5014570;28;20470;-75
2023/03/04 03:51:15;;;;;;;13.32;5.32;;;;;;;;;;5012636;28;20035;-75
2023/03/04 03:53:40;;;;;;;14.75;4.95;;;;;;;;;;5013650;28;20050;-75
2023/03/04 03:56:06;;;;;;;16.73;5.57;;;;;;;;;;5013695;28;20078;-75
2023/03/04 03:58:31;;;;;;;13.20;4.90;;;;;;;;;;5016897;28;20386;-76
2023/03/04 04:00:57;;;;;;;8.93;4.55;;;;;;;;;;5008502;28;20065;-76
2023/03/04 04:03:22;;;;;;;13.25;5.07;;;;;;;;;;5002741;28;20041;-75
2023/03/04 04:05:48;;;;;;;14.25;5.03;;;;;;;;;;5008571;28;20041;-75
2023/03/04 04:08:17;;;;;;;10.80;5.50;;;;;;;;;;5016361;28;20049;-75
2023/03/04 04:10:43;;;;;;;10.80;5.00;;;;;;;;;;5009444;28;20504;-77
2023/03/04 04:13:09;;;;;;;22.13;6.88;;;;;;;;;;5012341;28;20129;-75
2023/03/04 04:15:35;;;;;;;15.07;6.38;;;;;;;;;;5031302;28;20076;-75
2023/03/04 04:18:01;;;;;;;9.02;5.28;;;;;;;;;;5016672;28;20022;-75
2023/03/04 04:20:26;;;;;;;13.90;5.18;;;;;;;;;;5031642;28;20458;-75
2023/03/04 04:22:52;;;;;;;18.63;5.60;;;;;;;;;;5016254;28;20048;-75
2023/03/04 04:25:17;;;;;;;13.63;6.88;;;;;;;;;;5016093;28;20116;-75
2023/03/04 04:27:43;;;;;;;13.38;5.13;;;;;;;;;;5016382;28;20102;-76
2023/03/04 04:30:09;;;;;;;15.23;5.95;;;;;;;;;;5015598;28;20045;-75
2023/03/04 04:32:34;;;;;;;11.55;5.70;;;;;;;;;;5014159;28;20069;-77
2023/03/04 04:35:00;;;;;;;14.90;5.70;;;;;;;;;;5015850;28;20038;-75
2023/03/04 04:37:25;;;;;;;16.83;6.53;;;;;;;;;;5014153;28;20038;-74
2023/03/04 04:39:51;;;;;;;12.88;5.70;;;;;;;;;;5014211;28;20029;-75
2023/03/04 04:42:16;;;;;;;15.85;5.53;;;;;;;;;;5000789;28;20057;-75
2023/03/04 04:44:42;;;;;;;10.15;5.50;;;;;;;;;;5015570;28;20046;-75
2023/03/04 04:47:08;;;;;;;11.38;6.28;;;;;;;;;;5014538;28;20029;-75
2023/03/04 04:49:34;;;;;;;11.93;5.85;;;;;;;;;;5030957;28;20092;-75
2023/03/04 04:52:00;;;;;;;17.08;6.65;;;;;;;;;;5015559;28;20536;-75
2023/03/04 04:54:25;;;;;;;16.60;6.82;;;;;;;;;;5015565;28;20040;-75
2023/03/04 04:56:50;;;;;;;19.58;6.72;;;;;;;;;;5015161;28;20125;-75
2023/03/04 04:59:16;;;;;;;17.77;6.28;;;;;;;;;;5015800;28;20469;-75
2023/03/04 05:01:41;;;;;;;20.75;7.57;;;;;;;;;;5011152;28;20041;-74
2023/03/04 05:04:07;;;;;;;17.52;5.80;;;;;;;;;;5011213;28;20470;-75
2023/03/04 05:06:32;;;;;;;17.60;6.15;;;;;;;;;;5010107;28;20463;-75
2023/03/04 05:08:58;;;;;;;15.50;4.93;;;;;;;;;;5012796;28;20041;-75
2023/03/04 05:11:23;;;;;;;14.30;6.50;;;;;;;;;;5015155;28;20042;-75
2023/03/04 05:13:49;;;;;;;13.13;6.50;;;;;;;;;;5015366;28;21278;-75
2023/03/04 05:16:15;;;;;;;9.25;5.07;;;;;;;;;;5012075;28;20101;-75
2023/03/04 05:18:41;;;;;;;12.20;5.05;;;;;;;;;;5030241;28;20504;-75
2023/03/04 05:21:07;;;;;;;14.68;6.50;;;;;;;;;;5015052;28;20046;-75
2023/03/04 05:23:36;;;;;;;12.48;5.47;;;;;;;;;;5015257;28;20032;-75
2023/03/04 05:26:04;;;;;;;14.73;5.43;;;;;;;;;;5009377;28;20037;-75
2023/03/04 05:28:29;;;;;;;10.80;5.18;;;;;;;;;;5008546;28;20042;-75
2023/03/04 05:30:55;;;;;;;13.07;5.32;;;;;;;;;;5008638;28;20093;-75
2023/03/04 05:33:20;;;;;;;11.43;6.22;;;;;;;;;;5012007;28;20124;-75
2023/03/04 05:35:47;;;;;;;12.85;5.78;;;;;;;;;;5014052;28;20037;-76
2023/03/04 05:38:14;;;;;;;13.05;5.97;;;;;;;;;;5015139;28;20033;-75
2023/03/04 05:40:40;;;;;;;12.07;5.43;;;;;;;;;;5029878;28;20042;-75
2023/03/04 05:43:06;;;;;;;14.93;5.18;;;;;;;;;;5012074;28;20037;-75
2023/03/04 05:45:32;;;;;;;11.88;5.60;;;;;;;;;;5014224;28;20033;-76
2023/03/04 05:47:58;;;;;;;14.35;5.93;;;;;;;;;;5006063;28;20030;-75
2023/03/04 05:50:23;;;;;;;10.80;5.40;;;;;;;;;;5007758;28;20398;-75
2023/03/04 05:52:49;;;;;;;17.33;6.57;;;;;;;;;;5014434;28;20133;-75
2023/03/04 05:55:15;;;;;;;16.15;4.90;;;;;;;;;;5028981;28;20033;-74
2023/03/04 05:57:41;;;;;;;17.52;6.28;;;;;;;;;;5011034;28;20505;-75
2023/03/04 06:00:11;;;;;;;15.95;5.15;;;;;;;;;;5008163;28;20065;-76
2023/03/04 06:02:37;;;;;;;9.07;4.57;;;;;;;;;;5011418;28;20116;-75
2023/03/04 06:05:03;;;;;;;11.07;4.85;;;;;;;;;;5013003;28;20121;-75
2023/03/04 06:07:29;;;;;;;15.68;5.30;;;;;;;;;;5011911;28;20026;-75
2023/03/04 06:09:54;;;;;;;10.27;5.78;;;;;;;;;;5013801;28;20034;-76
2023/03/04 06:12:20;;;;;;;14.65;6.30;;;;;;;;;;5014559;28;20040;-75
2023/03/04 06:14:45;;;;;;;15.25;6.45;;;;;;;;;;5002011;28;20117;-77
2023/03/04 06:17:11;;;;;;;9.23;5.28;;;;;;;;;;5013075;28;20041;-75
2023/03/04 06:19:40;;;;;;;12.98;6.05;;;;;;;;;;5014491;28;20048;-75
2023/03/04 06:22:07;;;;;;;12.02;5.70;;;;;;;;;;5006929;28;20398;-76
2023/03/04 06:24:33;;;;;;;9.60;5.20;;;;;;;;;;5007145;28;20103;-77
2023/03/04 06:26:58;;;;;;;18.33;5.78;;;;;;;;;;5014046;28;20038;-75
2023/03/04 06:29:24;;;;;;;6.97;4.35;;;;;;;;;;5006849;28;20038;-75
2023/03/04 06:31:49;;;;;;;14.63;5.63;;;;;;;;;;5023462;28;21381;-75
2023/03/04 06:34:14;;;;;;;12.45;5.90;;;;;;;;;;5009445;28;20062;-76
2023/03/04 06:36:40;;;;;;;14.57;6.90;;;;;;;;;;5001503;28;20065;-75
2023/03/04 06:39:06;;;;;;;12.05;6.13;;;;;;;;;;4998266;28;20478;-75
2023/03/04 06:41:32;;;;;;;9.77;5.85;;;;;;;;;;5017477;28;20415;-75
2023/03/04 06:43:58;;;;;;;14.95;6.28;;;;;;;;;;5010271;28;20048;-75
2023/03/04 06:46:23;;;;;;;18.98;6.65;;;;;;;;;;5013828;28;20038;-76
2023/03/04 06:48:48;;;;;;;12.02;6.82;;;;;;;;;;5013629;28;20042;-75
2023/03/04 06:51:14;;;;;;;15.93;7.45;;;;;;;;;;5006541;28;20034;-75
2023/03/04 06:53:40;;;;;;;13.38;5.85;;;;;;;;;;5005246;28;20046;-75
2023/03/04 06:56:06;;;;;;;14.23;6.53;;;;;;;;;;5027873;28;20092;-75
2023/03/04 06:58:32;;;;;;;16.02;6.57;;;;;;;;;;5013499;28;20389;-75
2023/03/04 07:01:12;;;;;;;15.52;6.47;;;;;;;;;;5013371;28;20044;-75
2023/03/04 07:03:37;;;;;;;16.23;6.43;;;;;;;;;;5008648;28;20038;-75
2023/03/04 07:06:04;;;;;;;16.33;5.35;;;;;;;;;;5011272;28;20054;-75
2023/03/04 07:08:30;;;;;;;11.43;5.75;;;;;;;;;;5007153;28;20044;-75
2023/03/04 07:10:55;;;;;;;15.60;6.82;;;;;;;;;;5019996;28;20042;-75
2023/03/04 07:13:20;;;;;;;19.08;7.10;;;;;;;;;;5028461;28;20072;-75
2023/03/04 07:15:46;;;;;;;17.75;7.18;;;;;;;;;;5012643;28;20053;-75
2023/03/04 07:18:11;;;;;;;18.33;6.82;;;;;;;;;;5003044;28;20042;-75
2023/03/04 07:20:37;;;;;;;13.93;7.13;;;;;;;;;;5007033;28;20037;-75
2023/03/04 07:23:02;;;;;;;17.98;6.32;;;;;;;;;;5013307;28;20489;-75
2023/03/04 07:25:28;;;;;;;15.15;6.68;;;;;;;;;;5011813;28;20069;-76
2023/03/04 07:27:53;;;;;;;11.48;6.03;;;;;;;;;;5009713;28;20057;-75
2023/03/04 07:30:19;;;;;;;12.85;6.35;;;;;;;;;;5011429;28;20450;-75
2023/03/04 07:32:44;;;;;;;13.57;6.85;;;;;;;;;;5008348;28;20045;-74
2023/03/04 07:35:10;;;;;;;13.05;6.22;;;;;;;;;;5007129;28;20045;-75
2023/03/04 07:37:35;;;;;;;15.60;5.75;;;;;;;;;;5006345;28;20046;-75
2023/03/04 07:40:01;;;;;;;11.95;6.57;;;;;;;;;;5004346;28;20116;-75
2023/03/04 07:42:26;;;;;;;12.73;6.00;;;;;;;;;;5013610;28;20033;-76
2023/03/04 07:44:53;;;;;;;8.73;5.47;;;;;;;;;;5010511;28;20034;-75
2023/03/04 07:47:19;;;;;;;20.08;6.72;;;;;;;;;;5013116;28;20038;-75
2023/03/04 07:49:44;;;;;;;13.32;6.35;;;;;;;;;;5012855;28;20129;-76
2023/03/04 07:52:13;;;;;;;15.05;6.25;;;;;;;;;;5003951;28;20074;-75
2023/03/04 07:54:38;;;;;;;14.32;6.25;;;;;;;;;;5005828;28;20081;-76
2023/03/04 07:57:04;;;;;;;14.48;5.57;;;;;;;;;;5012183;28;20567;-76
2023/03/04 07:59:29;;;;;;;15.57;6.25;;;;;;;;;;5012942;28;20030;-76
2023/03/04 08:01:54;;;;;;;12.75;6.15;;;;;;;;;;5004886;28;20477;-76
2023/03/04 08:04:20;;;;;;;15.43;6.18;;;;;;;;;;5011181;28;20072;-75
2023/03/04 08:06:47;;;;;;;11.07;5.82;;;;;;;;;;5009244;28;20053;-76
2023/03/04 08:09:13;;;;;;;11.65;6.00;;;;;;;;;;5004032;28;20125;-75
2023/03/04 08:11:38;;;;;;;15.85;5.70;;;;;;;;;;5002339;28;20126;-78
2023/03/04 08:14:04;;;;;;;14.35;6.10;;;;;;;;;;4996053;28;20039;-75
2023/03/04 08:16:30;;;;;;;13.30;4.68;;;;;;;;;;5023551;28;20362;-76
2023/03/04 08:18:57;;;;;;;10.25;6.25;;;;;;;;;;5015047;28;20511;-75
2023/03/04 08:21:23;;;;;;;12.35;5.25;;;;;;;;;;5014824;28;20109;-76
2023/03/04 08:23:50;;;;;;;11.73;5.75;;;;;;;;;;5015624;28;20069;-78
2023/03/04 08:26:19;;;;;;;14.98;6.22;;;;;;;;;;5029978;28;20096;-78
2023/03/04 08:28:45;;;;;;;20.63;6.30;;;;;;;;;;5006181;28;20062;-75
2023/03/04 08:31:12;;;;;;;11.82;5.85;;;;;;;;;;5006621;28;20065;-75
2023/03/04 08:33:37;;;;;;;14.35;6.10;;;;;;;;;;5031491;28;20045;-76
2023/03/04 08:36:03;;;;;;;5.90;3.58;;;;;;;;;;5016235;28;20034;-76
2023/03/04 08:38:30;;;;;;;8.52;4.70;;;;;;;;;;5016375;28;20156;-76
2023/03/04 08:40:56;;;;;;;13.98;5.90;;;;;;;;;;5015780;28;20156;-76
2023/03/04 08:43:23;;;;;;;11.23;5.40;;;;;;;;;;5016136;28;20485;-77
2023/03/04 08:45:48;;;;;;;11.27;5.72;;;;;;;;;;5011688;28;20128;-76
2023/03/04 08:48:14;;;;;;;12.68;5.93;;;;;;;;;;5015064;28;20168;-77
2023/03/04 08:50:40;;;;;;;14.07;5.43;;;;;;;;;;5011427;28;20026;-76
2023/03/04 08:53:05;;;;;;;9.20;5.72;;;;;;;;;;5015189;28;20517;-75
2023/03/04 08:55:31;;;;;;;13.80;5.53;;;;;;;;;;5014620;28;20038;-75
2023/03/04 08:57:56;;;;;;;12.70;5.60;;;;;;;;;;5015652;28;20029;-75
2023/03/04 09:00:22;;;;;;;13.23;5.47;;;;;;;;;;5015095;28;20060;-75
2023/03/04 09:02:48;;;;;;;6.90;3.85;;;;;;;;;;5009891;28;20069;-75
2023/03/04 09:05:14;;;;;;;9.55;5.20;;;;;;;;;;5013817;28;20033;-76
2023/03/04 09:07:39;;;;;;;8.48;5.07;;;;;;;;;;5015037;28;20453;-76
2023/03/04 09:10:05;;;;;;;9.68;4.97;;;;;;;;;;5015119;28;20050;-76
2023/03/04 09:12:30;;;;;;;17.85;5.53;;;;;;;;;;5004948;28;20030;-75
2023/03/04 09:14:56;;;;;;;13.18;4.47;;;;;;;;;;5009454;28;20049;-76
2023/03/04 09:17:22;;;;;;;10.90;5.22;;;;;;;;;;5012812;28;20048;-76
2023/03/04 09:19:47;;;;;;;10.85;5.18;;;;;;;;;;5008911;28;20069;-76
2023/03/04 09:22:13;;;;;;;12.70;5.50;;;;;;;;;;5008227;28;20537;-75
2023/03/04 09:24:38;;;;;;;13.35;6.18;;;;;;;;;;5008004;28;20121;-76
2023/03/04 09:27:04;;;;;;;11.00;5.28;;;;;;;;;;5011725;28;20080;-75
2023/03/04 09:29:29;;;;;;;18.67;5.75;;;;;;;;;;5009511;28;20470;-75
2023/03/04 09:31:55;;;;;;;4.15;2.38;;;;;;;;;;5015024;28;20464;-75
2023/03/04 09:34:20;;;;;;;11.15;5.30;;;;;;;;;;5015167;28;20022;-76
2023/03/04 09:36:46;;;;;;;11.48;5.22;;;;;;;;;;5013766;28;20042;-76
2023/03/04 09:39:11;;;;;;;15.05;4.93;;;;;;;;;;5002732;28;20030;-76
2023/03/04 09:41:46;;;;;;;9.32;4.80;;;;;;;;;;5011350;28;20389;-77
2023/03/04 09:44:27;;;;;;;6.20;3.28;;;;;;;;;;5006081;28;20169;-77
2023/03/04 09:46:57;;;;;;;10.57;5.00;;;;;;;;;;5004552;28;20041;-77
2023/03/04 09:49:22;;;;;;;15.15;5.38;;;;;;;;;;5011848;28;20160;-77
2023/03/04 09:51:55;;;;;;;11.80;5.20;;;;;;;;;;4993339;28;20076;-77
2023/03/04 09:54:32;;;;;;;11.95;4.72;;;;;;;;;;5010256;28;20030;-77
2023/03/04 09:57:13;;;;;;;10.00;4.88;;;;;;;;;;4995568;28;20042;-77
2023/03/04 09:59:44;;;;;;;13.27;4.80;;;;;;;;;;5006884;28;20026;-77
2023/03/04 10:02:19;;;;;;;8.15;3.90;;;;;;;;;;5009600;28;20607;-77
2023/03/04 10:04:50;;;;;;;15.23;5.50;;;;;;;;;;5007781;28;20474;-77
2023/03/04 10:07:23;;;;;;;10.18;5.38;;;;;;;;;;5012420;28;20038;-77
2023/03/04 10:09:50;;;;;;;16.23;6.13;;;;;;;;;;5028958;28;20049;-76
2023/03/04 10:12:19;;;;;;;13.23;6.03;;;;;;;;;;5013275;28;20049;-77
2023/03/04 10:14:59;;;;;;;17.70;7.05;;;;;;;;;;5012073;28;20107;-76
2023/03/04 10:17:36;;;;;;;12.45;6.25;;;;;;;;;;5009457;28;20398;-76
2023/03/04 10:20:22;;;;;;;17.80;7.53;;;;;;;;;;5006287;28;20046;-76
2023/03/04 10:22:52;;;;;;;13.07;6.38;;;;;;;;;;4998888;28;20084;-77
2023/03/04 10:25:18;;;;;;;16.42;8.05;;;;;;;;;;5010090;28;20029;-76
2023/03/04 10:27:53;;;;;;;14.70;7.60;;;;;;;;;;5011166;28;20045;-77
2023/03/04 10:30:56;;;;;;;16.27;7.93;;;;;;;;;;5006624;28;20164;-75
2023/03/04 10:33:25;;;;;;;13.07;7.47;;;;;;;;;;5007604;28;20042;-76
2023/03/04 10:35:59;;;;;;;16.27;8.43;;;;;;;;;;5005704;28;20037;-77
2023/03/04 10:38:31;;;;;;;12.02;6.03;;;;;;;;;;5011747;28;20486;-76
2023/03/04 10:40:57;;;;;;;14.48;7.30;;;;;;;;;;5006722;28;20129;-76
2023/03/04 10:43:23;;;;;;;18.42;8.13;;;;;;;;;;5012693;28;20049;-76
2023/03/04 10:45:54;;;;;;;16.25;6.65;;;;;;;;;;5005608;28;20069;-76
2023/03/04 10:48:27;;;;;;;12.98;6.75;;;;;;;;;;5008231;28;20038;-75
2023/03/04 10:50:53;;;;;;;21.02;8.38;;;;;;;;;;5000219;28;20050;-76
2023/03/04 10:53:35;;;;;;;20.58;7.53;;;;;;;;;;5027180;28;20402;-76
2023/03/04 10:56:01;;;;;;;18.23;8.15;;;;;;;;;;5005661;28;20140;-76
2023/03/04 10:58:27;;;;;;;16.25;7.80;;;;;;;;;;5012429;28;20569;-76
2023/03/04 11:01:05;;;;;;;21.67;7.82;;;;;;;;;;5026421;28;20049;-76
2023/03/04 11:03:35;;;;;;;17.27;7.10;;;;;;;;;;5010803;28;20038;-76
2023/03/04 11:06:18;;;;;;;15.15;8.32;;;;;;;;;;5008068;28;20399;-76
2023/03/04 11:08:52;;;;;;;13.68;7.43;;;;;;;;;;5009431;28;20033;-76
2023/03/04 11:11:36;;;;;;;18.85;8.30;;;;;;;;;;5003420;28;20120;-77
2023/03/04 11:14:03;;;;;;;;;;;;;;;;;;5027258;28;20034;-75
2023/03/04 11:16:31;;;;;;;13.55;7.15;;;;;;;;;;5003755;28;19920;-76
2023/03/04 11:19:05;;;;;;;10.98;4.78;;;;;;;;;;5028594;28;20053;-76
2023/03/04 11:21:35;;;;;;;16.35;7.43;;;;;;;;;;5012370;28;20034;-76
2023/03/04 11:24:24;;;;;;;13.93;6.93;;;;;;;;;;5003289;28;20042;-76
2023/03/04 11:27:02;;;;;;;13.60;6.20;;;;;;;;;;4999746;28;20045;-76
2023/03/04 11:29:36;;;;;;;12.27;6.50;;;;;;;;;;5009584;28;20045;-76
2023/03/04 11:32:16;;;;;;;14.23;7.15;;;;;;;;;;4998942;28;20046;-76
2023/03/04 11:34:57;;;;;;;12.35;6.82;;;;;;;;;;4989156;28;20781;-75
2023/03/04 11:37:30;;;;;;;18.05;7.88;;;;;;;;;;5007884;28;20561;-76
2023/03/04 11:40:00;;;;;;;13.23;4.00;;;;;;;;;;4992284;28;20087;-76
2023/03/04 11:42:44;;;;;;;14.70;6.25;;;;;;;;;;4995964;28;20035;-76
2023/03/04 11:45:15;;;;;;;13.65;6.50;;;;;;;;;;5002325;28;20034;-76
2023/03/04 11:47:52;;;;;;;14.38;6.25;;;;;;;;;;5001603;28;20089;-77
2023/03/04 11:50:34;;;;;;;7.90;4.60;;;;;;;;;;5007166;28;20029;-76
2023/03/04 11:53:02;;;;;;;14.38;5.47;;;;;;;;;;5004044;28;20530;-76
2023/03/04 11:55:31;;;;;;;7.68;3.88;;;;;;;;;;5011779;28;20034;-76
2023/03/04 11:58:18;;;;;;;11.07;4.82;;;;;;;;;;5011710;28;20041;-76
2023/03/04 12:00:50;;;;;;;10.38;4.88;;;;;;;;;;5017113;28;20092;-76
2023/03/04 12:03:37;;;;;;;7.25;4.18;;;;;;;;;;5012011;28;20549;-76
2023/03/04 12:06:29;;;;;;;14.93;5.78;;;;;;;;;;5015259;28;20427;-77
2023/03/04 12:09:33;;;;;;;10.23;4.15;;;;;;;;;;5007222;28;20046;-76
2023/03/04 12:12:35;;;;;;;7.00;4.00;;;;;;;;;;4997603;28;20080;-76
2023/03/04 12:15:19;;;;;;;10.57;3.80;;;;;;;;;;5002030;28;20081;-76
2023/03/04 12:17:59;;;;;;;8.63;3.90;;;;;;;;;;5011482;28;20068;-76
2023/03/04 12:20:46;;;;;;;13.63;4.25;;;;;;;;;;5015316;28;20052;-76
2023/03/04 12:23:42;;;;;;;10.00;3.92;;;;;;;;;;5013915;28;20041;-76
2023/03/04 12:26:30;;;;;;;11.98;4.70;;;;;;;;;;5006312;28;20049;-76
2023/03/04 12:29:02;;;;;;;9.32;3.75;;;;;;;;;;5001301;28;20046;-76
2023/03/04 12:31:30;;;;;;;9.30;3.33;;;;;;;;;;5013376;28;20045;-76
2023/03/04 12:34:02;;;;;;;7.35;3.97;;;;;;;;;;5000676;28;20041;-76
2023/03/04 12:37:12;;;;;;;8.93;3.72;;;;;;;;;;5014749;28;20524;-76
2023/03/04 12:40:04;;;;;;;13.10;4.20;;;;;;;;;;5013872;28;20061;-77
2023/03/04 12:43:10;;;;;;;8.50;3.83;;;;;;;;;;5003758;28;20041;-76
2023/03/04 12:45:44;;;;;;;15.88;3.90;;;;;;;;;;5014204;28;20533;-77
2023/03/04 12:48:18;;;;;;;10.23;3.97;;;;;;;;;;5002550;28;20038;-76
2023/03/04 12:51:13;;;;;;;11.07;3.47;;;;;;;;;;5009968;28;20160;-76
2023/03/04 12:53:41;;;;;;;5.65;3.40;;;;;;;;;;5000759;28;20053;-77
2023/03/04 12:56:18;;;;;;;10.05;4.03;;;;;;;;;;4998261;28;20038;-77
2023/03/04 12:58:43;;;;;;;8.95;3.90;;;;;;;;;;5008072;28;20037;-76
2023/03/04 13:01:16;;;;;;;12.07;3.75;;;;;;;;;;5011817;28;20092;-77
2023/03/04 13:03:45;;;;;;;7.50;3.58;;;;;;;;;;4995419;28;20038;-76
2023/03/04 13:06:26;;;;;;;10.32;3.63;;;;;;;;;;5012074;28;20050;-77
2023/03/04 13:09:16;;;;;;;7.57;3.95;;;;;;;;;;5009948;28;20141;-77
2023/03/04 13:11:46;;;;;;;10.35;4.35;;;;;;;;;;5000750;28;20057;-76
2023/03/04 13:14:16;;;;;;;12.77;4.57;;;;;;;;;;5018476;28;20066;-76
2023/03/04 13:16:52;;;;;;;17.77;4.32;;;;;;;;;;5011137;28;20065;-76
2023/03/04 13:19:42;;;;;;;15.15;4.43;;;;;;;;;;5012743;28;20497;-76
2023/03/04 13:22:27;;;;;;;8.15;4.13;;;;;;;;;;5011476;28;20057;-77
2023/03/04 13:24:54;;;;;;;11.00;4.10;;;;;;;;;;5003918;28;20117;-76
2023/03/04 13:27:44;;;;;;;8.60;3.83;;;;;;;;;;5024762;28;20436;-77
2023/03/04 13:30:32;;;;;;;11.23;3.97;;;;;;;;;;5000528;28;20057;-77
2023/03/04 13:33:09;;;;;;;8.15;4.07;;;;;;;;;;4991536;28;20541;-77
2023/03/04 13:35:53;;;;;;;6.95;3.90;;;;;;;;;;4996427;28;20049;-77
2023/03/04 13:38:31;;;;;;;11.02;4.45;;;;;;;;;;5007114;28;20064;-77
2023/03/04 13:41:30;;;;;;;10.73;4.60;;;;;;;;;;5001674;28;20034;-77
2023/03/04 13:44:00;;;;;;;13.38;5.63;;;;;;;;;;5004588;28;20029;-77
2023/03/04 13:46:26;;;;;;;10.90;5.18;;;;;;;;;;5002984;28;20033;-77
2023/03/04 13:48:51;;;;;;;12.50;4.97;;;;;;;;;;5009760;28;20638;-78
2023/03/04 13:51:28;;;;;;;10.48;5.15;;;;;;;;;;5010489;28;20038;-78
2023/03/04 13:53:54;;;;;;;13.13;6.00;;;;;;;;;;5005807;28;20096;-76
2023/03/04 13:56:24;;;;;;;11.73;5.63;;;;;;;;;;4992772;28;20042;-77
2023/03/04 13:58:52;;;;;;;11.48;5.30;;;;;;;;;;4997635;28;20997;-77
2023/03/04 14:01:30;;;;;;;13.63;5.70;;;;;;;;;;5000533;28;20049;-77
2023/03/04 14:03:57;;;;;;;10.88;6.25;;;;;;;;;;5012380;28;20056;-77
2023/03/04 14:06:26;;;;;;;21.10;6.50;;;;;;;;;;4999690;28;20058;-76
2023/03/04 14:08:53;;;;;;;22.17;6.70;;;;;;;;;;5003660;28;20038;-78
2023/03/04 14:11:35;;;;;;;11.75;5.70;;;;;;;;;;5003569;28;20125;-78
2023/03/04 14:14:04;;;;;;;11.38;5.97;;;;;;;;;;5013532;28;20069;-78
2023/03/04 14:16:36;;;;;;;9.85;5.22;;;;;;;;;;5008141;28;20030;-77
2023/03/04 14:19:05;;;;;;;14.60;6.10;;;;;;;;;;5007287;28;20037;-76
2023/03/04 14:21:31;;;;;;;11.30;5.75;;;;;;;;;;5027144;28;20037;-77
2023/03/04 14:24:10;;;;;;;11.13;5.65;;;;;;;;;;5004063;28;20513;-76
2023/03/04 14:26:36;;;;;;;13.43;6.47;;;;;;;;;;5020991;28;20116;-77
2023/03/04 14:29:02;;;;;;;10.70;5.32;;;;;;;;;;5012664;28;20133;-77
2023/03/04 14:31:30;;;;;;;16.67;5.82;;;;;;;;;;5012075;28;20033;-76
2023/03/04 14:34:01;;;;;;;11.57;5.60;;;;;;;;;;5018823;28;20046;-77
2023/03/04 14:36:34;;;;;;;12.00;5.07;;;;;;;;;;5002516;28;20041;-77
2023/03/04 14:39:01;;;;;;;11.67;6.20;;;;;;;;;;5010915;28;20140;-77
2023/03/04 14:41:32;;;;;;;13.25;6.13;;;;;;;;;;5014199;28;20076;-77
2023/03/04 14:44:03;;;;;;;12.32;6.07;;;;;;;;;;5012226;28;20088;-77
2023/03/04 14:46:33;;;;;;;17.33;6.88;;;;;;;;;;5008054;28;20129;-77